createdAt,value
2023-01-17T00:02:13.464Z,3.20
2023-01-17T00:04:58.681Z,2.97
2023-01-17T00:07:44.729Z,2.97
2023-01-17T00:10:18.938Z,2.70
2023-01-17T00:12:51.856Z,3.08
2023-01-17T00:15:23.162Z,2.95
2023-01-17T00:17:50.877Z,3.45
2023-01-17T00:20:45.317Z,2.40
2023-01-17T00:23:36.559Z,2.92
2023-01-17T00:26:04.749Z,2.45
2023-01-17T00:28:37.153Z,2.47
2023-01-17T00:31:05.418Z,2.38
2023-01-17T00:33:32.768Z,2.50
2023-01-17T00:36:01.031Z,2.72
2023-01-17T00:38:30.498Z,2.30
2023-01-17T00:41:09.593Z,1.83
2023-01-17T00:43:55.082Z,1.90
2023-01-17T00:46:40.532Z,1.92
2023-01-17T00:49:26.977Z,2.33
2023-01-17T00:52:12.575Z,2.90
2023-01-17T00:54:57.956Z,2.53
2023-01-17T00:57:43.423Z,3.03
2023-01-17T01:00:30.225Z,2.58
2023-01-17T01:03:15.531Z,2.30
2023-01-17T01:06:00.685Z,2.05
2023-01-17T01:08:48.029Z,2.67
2023-01-17T01:11:39.721Z,2.20
2023-01-17T01:14:26.926Z,2.28
2023-01-17T01:17:12.275Z,2.38
2023-01-17T01:19:57.569Z,2.80
2023-01-17T01:22:42.845Z,2.40
2023-01-17T01:25:28.235Z,2.60
2023-01-17T01:28:22.423Z,2.83
2023-01-17T01:31:07.736Z,2.38
2023-01-17T01:33:34.414Z,1.30
2023-01-17T01:36:01.101Z,1.60
2023-01-17T01:38:27.805Z,1.50
2023-01-17T01:40:56.158Z,1.65
2023-01-17T01:43:49.155Z,1.38
2023-01-17T01:46:39.774Z,0.95
2023-01-17T01:49:16.156Z,1.15
2023-01-17T01:51:46.435Z,1.02
2023-01-17T01:54:24.241Z,1.17
2023-01-17T01:56:53.661Z,1.05
2023-01-17T01:59:22.573Z,0.90
2023-01-17T02:01:51.531Z,1.67
2023-01-17T02:04:19.626Z,1.52
2023-01-17T02:06:50.176Z,1.50
2023-01-17T02:09:18.711Z,1.50
2023-01-17T02:11:47.038Z,1.73
2023-01-17T02:14:18.698Z,1.58
2023-01-17T02:20:25.517Z,1.13
2023-01-17T02:22:58.284Z,1.25
2023-01-17T02:25:45.314Z,1.02
2023-01-17T02:28:43.969Z,1.10
2023-01-17T02:31:33.772Z,1.20
2023-01-17T02:34:41.029Z,1.40
2023-01-17T02:37:35.218Z,1.60
2023-01-17T02:40:13.581Z,1.75
2023-01-17T02:42:50.153Z,2.03
2023-01-17T02:45:19.006Z,2.30
2023-01-17T02:47:46.061Z,2.45
2023-01-17T02:50:17.433Z,3.25
2023-01-17T02:52:53.261Z,3.38
2023-01-17T02:55:23.199Z,3.30
2023-01-17T02:58:13.092Z,3.45
2023-01-17T03:01:20.544Z,3.53
2023-01-17T03:04:05.825Z,2.88
2023-01-17T03:06:43.917Z,2.85
2023-01-17T03:09:12.551Z,3.17
2023-01-17T03:11:39.183Z,3.38
2023-01-17T03:14:05.896Z,3.15
2023-01-17T03:16:33.708Z,2.55
2023-01-17T03:19:01.041Z,2.83
2023-01-17T03:21:27.754Z,2.30
2023-01-17T03:23:54.634Z,2.20
2023-01-17T03:26:21.638Z,2.30
2023-01-17T03:28:48.332Z,2.22
2023-01-17T03:31:19.914Z,2.35
2023-01-17T03:36:13.234Z,2.20
2023-01-17T03:38:39.860Z,2.70
2023-01-17T03:41:06.701Z,2.67
2023-01-17T03:43:33.342Z,2.40
2023-01-17T03:46:17.051Z,2.50
2023-01-17T03:48:43.783Z,2.63
2023-01-17T03:51:10.503Z,3.00
2023-01-17T03:53:37.317Z,3.47
2023-01-17T03:56:04.085Z,3.50
2023-01-17T03:58:30.827Z,3.50
2023-01-17T04:00:57.556Z,4.15
2023-01-17T04:03:24.355Z,3.85
2023-01-17T04:05:51.070Z,6.90
2023-01-17T04:08:17.894Z,10.25
2023-01-17T04:10:44.568Z,7.25
2023-01-17T04:13:11.290Z,4.55
2023-01-17T04:15:38.488Z,5.00
2023-01-17T04:18:05.841Z,6.35
2023-01-17T04:20:37.962Z,6.53
2023-01-17T04:23:05.519Z,6.95
2023-01-17T04:25:32.531Z,7.90
2023-01-17T04:28:00.802Z,7.57
2023-01-17T04:30:28.694Z,7.82
2023-01-17T04:32:55.822Z,5.60
2023-01-17T04:35:22.645Z,5.53
2023-01-17T04:37:49.655Z,5.32
2023-01-17T04:40:16.681Z,5.68
2023-01-17T04:42:46.906Z,5.72
2023-01-17T04:45:14.336Z,6.97
2023-01-17T04:47:41.351Z,7.10
2023-01-17T04:50:09.451Z,7.95
2023-01-17T04:52:36.157Z,6.68
2023-01-17T04:55:02.928Z,8.32
2023-01-17T04:57:29.597Z,8.55
2023-01-17T04:59:56.269Z,9.98
2023-01-17T05:02:22.943Z,10.30
2023-01-17T05:04:49.621Z,11.20
2023-01-17T05:07:16.305Z,10.75
2023-01-17T05:09:43.823Z,11.70
2023-01-17T05:12:10.720Z,10.35
2023-01-17T05:14:37.354Z,9.40
2023-01-17T05:17:04.164Z,9.00
2023-01-17T05:19:30.965Z,9.50
2023-01-17T05:22:03.721Z,8.60
2023-01-17T05:24:31.547Z,8.82
2023-01-17T05:27:02.993Z,8.13
2023-01-17T05:31:57.269Z,8.40
2023-01-17T05:34:24.131Z,9.15
2023-01-17T05:36:51.021Z,8.48
2023-01-17T05:39:18.008Z,8.55
2023-01-17T05:41:44.904Z,10.15
2023-01-17T05:44:11.750Z,9.27
2023-01-17T05:46:38.621Z,9.75
2023-01-17T05:49:05.551Z,10.98
2023-01-17T05:51:32.579Z,10.00
2023-01-17T05:53:59.269Z,9.57
2023-01-17T05:56:25.984Z,11.00
2023-01-17T05:58:52.728Z,10.18
2023-01-17T06:01:19.573Z,10.35
2023-01-17T06:03:46.350Z,12.25
2023-01-17T06:06:13.207Z,10.75
2023-01-17T06:08:39.855Z,10.70
2023-01-17T06:11:06.654Z,11.00
2023-01-17T06:13:33.397Z,10.38
2023-01-17T06:16:04.235Z,9.75
2023-01-17T06:18:31.708Z,10.38
2023-01-17T06:20:58.662Z,10.55
2023-01-17T06:23:25.696Z,11.02
2023-01-17T06:25:52.542Z,11.13
2023-01-17T06:28:21.650Z,10.63
2023-01-17T06:30:48.771Z,11.55
2023-01-17T06:33:16.678Z,12.07
2023-01-17T06:35:53.121Z,11.27
2023-01-17T06:38:20.576Z,11.75
2023-01-17T06:40:47.779Z,11.65
2023-01-17T06:43:14.628Z,11.35
2023-01-17T06:45:41.408Z,11.05
2023-01-17T06:48:08.335Z,12.40
2023-01-17T06:50:35.106Z,12.18
2023-01-17T06:53:04.445Z,11.13
2023-01-17T06:55:33.907Z,11.43
2023-01-17T06:58:02.536Z,11.10
2023-01-17T07:00:31.120Z,11.48
2023-01-17T07:02:58.074Z,12.57
2023-01-17T07:05:25.127Z,11.13
2023-01-17T07:07:51.865Z,12.18
2023-01-17T07:10:18.525Z,11.05
2023-01-17T07:12:45.398Z,11.80
2023-01-17T07:15:12.310Z,11.32
2023-01-17T07:17:39.241Z,11.10
2023-01-17T07:20:06.856Z,13.48
2023-01-17T07:22:33.644Z,11.52
2023-01-17T07:25:00.280Z,12.23
2023-01-17T07:27:30.236Z,12.07
2023-01-17T07:29:57.664Z,11.98
2023-01-17T07:32:26.444Z,12.45
2023-01-17T07:34:53.638Z,12.52
2023-01-17T07:37:20.640Z,13.57
2023-01-17T07:39:47.316Z,14.00
2023-01-17T07:42:13.968Z,15.25
2023-01-17T07:44:43.859Z,13.48
2023-01-17T07:47:10.949Z,12.98
2023-01-17T07:49:38.181Z,13.70
2023-01-17T07:52:07.297Z,13.50
2023-01-17T07:54:34.239Z,13.50
2023-01-17T07:57:01.726Z,13.90
2023-01-17T07:59:28.561Z,13.98
2023-01-17T08:01:55.336Z,13.90
2023-01-17T08:04:25.817Z,15.32
2023-01-17T08:06:54.275Z,13.98
2023-01-17T08:09:21.247Z,14.27
2023-01-17T08:11:47.842Z,14.82
2023-01-17T08:14:14.568Z,16.63
2023-01-17T08:16:42.079Z,17.90
2023-01-17T08:19:08.910Z,17.40
2023-01-17T08:21:35.573Z,17.13
2023-01-17T08:24:02.403Z,18.17
2023-01-17T08:26:29.143Z,20.33
2023-01-17T08:29:00.025Z,20.42
2023-01-17T08:31:28.484Z,22.80
2023-01-17T08:33:56.736Z,22.83
2023-01-17T08:36:25.617Z,23.83
2023-01-17T08:38:52.786Z,23.60
2023-01-17T08:41:23.971Z,22.75
2023-01-17T08:43:51.747Z,23.63
2023-01-17T08:46:18.646Z,22.40
2023-01-17T08:48:45.489Z,23.60
2023-01-17T08:51:12.223Z,22.42
2023-01-17T08:53:38.924Z,23.27
2023-01-17T08:56:06.031Z,21.58
2023-01-17T08:58:33.100Z,22.27
2023-01-17T09:01:04.422Z,22.95
2023-01-17T09:03:32.718Z,21.75
2023-01-17T09:06:04.226Z,22.73
2023-01-17T09:08:31.266Z,21.67
2023-01-17T09:10:58.208Z,21.83
2023-01-17T09:13:24.911Z,21.40
2023-01-17T09:15:56.460Z,20.35
2023-01-17T09:20:49.898Z,17.55
2023-01-17T09:23:16.560Z,17.40
2023-01-17T09:25:44.532Z,16.33
2023-01-17T09:28:11.151Z,16.02
2023-01-17T09:30:37.826Z,16.23
2023-01-17T09:33:04.535Z,15.95
2023-01-17T09:35:31.466Z,14.80
2023-01-17T09:37:58.205Z,13.52
2023-01-17T09:40:25.279Z,13.23
2023-01-17T09:42:57.988Z,11.30
2023-01-17T09:45:27.503Z,11.68
2023-01-17T09:47:55.069Z,10.40
2023-01-17T09:50:27.400Z,9.73
2023-01-17T09:53:01.059Z,10.00
2023-01-17T09:55:53.006Z,10.02
2023-01-17T09:58:23.559Z,9.10
2023-01-17T10:01:22.482Z,10.45
2023-01-17T10:03:55.268Z,9.70
2023-01-17T10:06:45.004Z,10.30
2023-01-17T10:09:23.808Z,9.45
2023-01-17T10:12:06.808Z,9.88
2023-01-17T10:15:03.068Z,8.57
2023-01-17T10:17:33.010Z,9.18
2023-01-17T10:20:24.316Z,8.45
2023-01-17T10:23:07.556Z,8.70
2023-01-17T10:25:43.014Z,9.00
2023-01-17T10:28:37.642Z,8.43
2023-01-17T10:31:26.492Z,7.72
2023-01-17T10:33:55.892Z,7.25
2023-01-17T10:36:25.323Z,7.45
2023-01-17T10:39:12.611Z,8.23
2023-01-17T10:41:50.716Z,8.07
2023-01-17T10:44:20.390Z,7.53
2023-01-17T10:46:58.329Z,7.88
2023-01-17T10:49:27.884Z,8.05
2023-01-17T10:52:03.481Z,8.35
2023-01-17T10:54:56.513Z,7.50
2023-01-17T10:57:26.914Z,7.53
2023-01-17T10:59:58.476Z,7.68
2023-01-17T11:05:05.570Z,7.13
2023-01-17T11:07:32.519Z,6.57
2023-01-17T11:09:59.170Z,6.85
2023-01-17T11:12:45.613Z,6.30
2023-01-17T11:15:12.199Z,5.93
2023-01-17T11:17:47.124Z,6.18
2023-01-17T11:20:25.440Z,6.22
2023-01-17T11:23:04.577Z,6.32
2023-01-17T11:25:35.741Z,6.47
2023-01-17T11:28:21.543Z,5.13
2023-01-17T11:30:55.398Z,6.35
2023-01-17T11:33:35.126Z,5.43
2023-01-17T11:36:01.931Z,5.72
2023-01-17T11:38:28.532Z,4.90
2023-01-17T11:41:15.358Z,5.53
2023-01-17T11:43:54.968Z,5.60
2023-01-17T11:46:22.379Z,4.70
2023-01-17T11:49:21.781Z,4.90
2023-01-17T11:51:48.569Z,4.80
2023-01-17T11:54:24.889Z,4.32
2023-01-17T11:56:58.224Z,3.65
2023-01-17T11:59:37.334Z,4.53
2023-01-17T12:02:18.895Z,4.47
2023-01-17T12:04:51.299Z,4.22
2023-01-17T12:07:36.367Z,4.07
2023-01-17T12:10:15.409Z,3.58
2023-01-17T12:13:28.107Z,3.88
2023-01-17T12:16:31.571Z,3.50
2023-01-17T12:19:20.932Z,3.42
2023-01-17T12:22:11.610Z,4.05
2023-01-17T12:25:08.841Z,3.70
2023-01-17T12:27:51.311Z,4.22
2023-01-17T12:30:24.336Z,3.15
2023-01-17T12:33:21.682Z,2.65
2023-01-17T12:36:17.671Z,3.08
2023-01-17T12:38:47.407Z,2.47
2023-01-17T12:41:28.766Z,3.30
2023-01-17T12:44:02.165Z,2.80
2023-01-17T12:46:44.071Z,2.85
2023-01-17T12:49:31.066Z,2.33
2023-01-17T12:52:36.677Z,2.60
2023-01-17T12:55:07.344Z,2.80
2023-01-17T12:57:41.980Z,2.83
2023-01-17T13:00:12.895Z,2.67
2023-01-17T13:03:07.434Z,3.17
2023-01-17T13:05:45.839Z,2.78
2023-01-17T13:08:40.447Z,3.00
2023-01-17T13:11:28.137Z,3.17
2023-01-17T13:13:57.568Z,3.90
2023-01-17T13:16:44.255Z,2.92
2023-01-17T13:19:25.673Z,3.25
2023-01-17T13:21:52.865Z,3.35
2023-01-17T13:24:55.582Z,2.92
2023-01-17T13:27:31.083Z,3.00
2023-01-17T13:30:28.658Z,3.47
2023-01-17T13:33:30.920Z,4.13
2023-01-17T13:36:29.761Z,3.58
2023-01-17T13:39:02.455Z,3.60
2023-01-17T13:41:42.874Z,3.78
2023-01-17T13:44:24.229Z,3.53
2023-01-17T13:47:04.061Z,3.70
2023-01-17T13:49:34.092Z,3.22
2023-01-17T13:52:22.978Z,3.28
2023-01-17T13:54:54.748Z,2.95
2023-01-17T13:57:34.578Z,2.58
2023-01-17T14:00:16.154Z,3.80
2023-01-17T14:02:43.413Z,3.10
2023-01-17T14:05:22.039Z,2.47
2023-01-17T14:07:55.842Z,2.30
2023-01-17T14:10:36.322Z,2.50
2023-01-17T14:13:05.649Z,2.58
2023-01-17T14:15:49.711Z,2.42
2023-01-17T14:18:35.103Z,2.90
2023-01-17T14:21:12.611Z,1.60
2023-01-17T14:23:51.513Z,2.53
2023-01-17T14:26:32.769Z,2.03
2023-01-17T14:29:38.140Z,2.30
2023-01-17T14:32:09.487Z,2.55
2023-01-17T14:34:36.907Z,2.90
2023-01-17T14:37:06.409Z,3.15
2023-01-17T14:39:44.737Z,2.60
2023-01-17T14:42:17.188Z,3.17
2023-01-17T14:44:48.938Z,3.03
2023-01-17T14:47:16.557Z,2.22
2023-01-17T14:49:43.755Z,2.33
2023-01-17T14:52:16.025Z,3.33
2023-01-17T14:54:50.617Z,2.67
2023-01-17T14:57:28.226Z,2.50
2023-01-17T15:00:18.943Z,2.17
2023-01-17T15:02:47.654Z,2.45
2023-01-17T15:05:21.480Z,2.63
2023-01-17T15:07:53.237Z,2.90
2023-01-17T15:10:23.508Z,2.78
2023-01-17T15:12:52.128Z,2.70
2023-01-17T15:15:33.137Z,2.80
2023-01-17T15:18:15.006Z,2.47
2023-01-17T15:20:46.917Z,2.65
2023-01-17T15:23:18.548Z,2.67
2023-01-17T15:28:14.790Z,2.72
2023-01-17T15:31:38.347Z,3.28
2023-01-17T15:34:14.115Z,3.90
2023-01-17T15:36:40.840Z,3.92
2023-01-17T15:39:22.207Z,4.07
2023-01-17T15:41:52.823Z,3.80
2023-01-17T15:44:46.756Z,4.50
2023-01-17T15:47:35.957Z,5.22
2023-01-17T15:50:29.945Z,4.75
2023-01-17T15:53:06.605Z,4.88
2023-01-17T15:55:39.932Z,5.15
2023-01-17T15:58:27.088Z,5.25
2023-01-17T16:00:54.644Z,5.20
2023-01-17T16:03:21.574Z,5.53
2023-01-17T16:05:49.590Z,5.78
2023-01-17T16:08:16.360Z,5.88
2023-01-17T16:10:44.090Z,8.70
2023-01-17T16:13:13.442Z,7.15
2023-01-17T16:15:42.835Z,6.50
2023-01-17T16:18:26.060Z,6.40
2023-01-17T16:21:00.940Z,6.13
2023-01-17T16:23:28.058Z,5.45
2023-01-17T16:25:54.848Z,5.47
2023-01-17T16:28:21.494Z,5.57
2023-01-17T16:30:48.780Z,4.90
2023-01-17T16:33:15.957Z,4.78
2023-01-17T16:35:44.023Z,5.00
2023-01-17T16:38:12.655Z,5.13
2023-01-17T16:40:44.002Z,4.57
2023-01-17T16:43:12.200Z,5.50
2023-01-17T16:45:47.480Z,5.25
2023-01-17T16:48:14.610Z,4.97
2023-01-17T16:50:48.103Z,5.85
2023-01-17T16:53:15.579Z,5.40
2023-01-17T16:55:43.759Z,5.75
2023-01-17T16:58:10.904Z,4.72
2023-01-17T17:00:39.291Z,6.00
2023-01-17T17:03:06.140Z,5.70
2023-01-17T17:05:34.048Z,6.07
2023-01-17T17:08:02.917Z,6.22
2023-01-17T17:10:31.262Z,6.10
2023-01-17T17:13:02.066Z,6.20
2023-01-17T17:17:56.225Z,6.07
2023-01-17T17:20:25.084Z,5.95
2023-01-17T17:22:51.909Z,7.25
2023-01-17T17:25:19.247Z,8.13
2023-01-17T17:27:45.974Z,8.23
2023-01-17T17:30:13.222Z,7.88
2023-01-17T17:32:39.913Z,9.25
2023-01-17T17:35:06.827Z,9.55
2023-01-17T17:37:34.300Z,9.25
2023-01-17T17:40:01.019Z,10.65
2023-01-17T17:42:27.729Z,10.05
2023-01-17T17:44:54.376Z,9.10
2023-01-17T17:47:21.046Z,10.35
2023-01-17T17:49:47.671Z,9.68
2023-01-17T17:52:14.318Z,10.45
2023-01-17T17:54:40.982Z,10.57
2023-01-17T17:57:07.742Z,11.23
2023-01-17T17:59:34.467Z,10.48
2023-01-17T18:02:01.309Z,11.00
2023-01-17T18:04:28.140Z,11.32
2023-01-17T18:06:58.406Z,10.73
2023-01-17T18:09:25.185Z,10.73
2023-01-17T18:12:04.717Z,10.57
2023-01-17T18:14:31.520Z,10.35
2023-01-17T18:16:58.207Z,10.77
2023-01-17T18:19:26.390Z,17.10
2023-01-17T18:21:53.087Z,11.77
2023-01-17T18:24:24.887Z,11.23
2023-01-17T18:26:53.507Z,11.40
2023-01-17T18:29:21.181Z,12.05
2023-01-17T18:31:52.674Z,12.40
2023-01-17T18:36:50.687Z,13.38
2023-01-17T18:39:26.213Z,13.55
2023-01-17T18:41:53.946Z,13.82
2023-01-17T18:44:22.147Z,16.60
2023-01-17T18:46:50.220Z,17.70
2023-01-17T18:49:18.964Z,18.70
2023-01-17T18:51:48.936Z,21.13
2023-01-17T18:54:19.944Z,18.83
2023-01-17T18:56:46.633Z,19.23
2023-01-17T18:59:14.300Z,17.58
2023-01-17T19:01:44.466Z,22.83
2023-01-17T19:04:13.051Z,21.88
2023-01-17T19:06:42.737Z,20.95
2023-01-17T19:09:11.597Z,20.17
2023-01-17T19:11:38.348Z,21.50
2023-01-17T19:14:05.232Z,23.08
2023-01-17T19:16:35.355Z,24.05
2023-01-17T19:19:07.088Z,25.70
2023-01-17T19:21:34.426Z,26.45
2023-01-17T19:24:04.136Z,25.15
2023-01-17T19:26:31.029Z,25.65
2023-01-17T19:29:03.542Z,29.17
2023-01-17T19:31:31.420Z,31.98
2023-01-17T19:33:59.610Z,30.73
2023-01-17T19:36:31.102Z,30.65
2023-01-17T19:41:41.060Z,28.95
2023-01-17T19:44:09.442Z,27.48
2023-01-17T19:46:36.993Z,26.55
2023-01-17T19:49:06.228Z,26.85
2023-01-17T19:51:33.004Z,26.95
2023-01-17T19:54:01.089Z,27.95
2023-01-17T19:56:28.623Z,25.75
2023-01-17T19:59:00.377Z,28.08
2023-01-17T20:01:30.361Z,26.00
2023-01-17T20:03:58.586Z,26.27
2023-01-17T20:06:30.154Z,25.98
2023-01-17T20:11:25.356Z,23.85
2023-01-17T20:13:54.697Z,24.77
2023-01-17T20:16:22.439Z,25.10
2023-01-17T20:18:49.832Z,24.40
2023-01-17T20:21:19.151Z,23.45
2023-01-17T20:23:47.329Z,22.52
2023-01-17T20:26:29.542Z,19.08
2023-01-17T20:28:56.286Z,19.05
2023-01-17T20:31:24.523Z,18.05
2023-01-17T20:33:54.151Z,18.20
2023-01-17T20:36:22.975Z,19.25
2023-01-17T20:38:49.848Z,18.48
2023-01-17T20:41:22.090Z,19.00
2023-01-17T20:43:51.374Z,18.42
2023-01-17T20:46:20.228Z,20.15
2023-01-17T20:48:48.592Z,24.63
2023-01-17T20:51:16.446Z,24.23
2023-01-17T20:53:44.814Z,21.15
2023-01-17T20:56:14.164Z,22.42
2023-01-17T20:58:41.594Z,21.42
2023-01-17T21:01:10.689Z,22.40
2023-01-17T21:03:38.535Z,23.52
2023-01-17T21:06:07.951Z,24.65
2023-01-17T21:08:36.919Z,27.58
2023-01-17T21:11:04.479Z,28.67
2023-01-17T21:13:31.682Z,30.27
2023-01-17T21:15:58.782Z,30.17
2023-01-17T21:18:26.511Z,31.15
2023-01-17T21:20:53.265Z,30.75
2023-01-17T21:23:20.164Z,30.23
2023-01-17T21:25:58.857Z,31.40
2023-01-17T21:28:27.917Z,30.52
2023-01-17T21:30:55.602Z,29.77
2023-01-17T21:33:24.227Z,31.90
2023-01-17T21:35:51.285Z,31.60
2023-01-17T21:38:19.051Z,32.75
2023-01-17T21:40:45.876Z,33.13
2023-01-17T21:43:15.232Z,32.92
2023-01-17T21:45:42.392Z,32.20
2023-01-17T21:48:14.409Z,32.47
2023-01-17T21:50:41.090Z,31.55
2023-01-17T21:53:11.222Z,31.85
2023-01-17T21:55:57.075Z,31.73
2023-01-17T21:58:43.382Z,30.25
2023-01-17T22:01:18.259Z,29.25
2023-01-17T22:03:52.186Z,28.90
2023-01-17T22:06:20.380Z,28.98
2023-01-17T22:08:47.102Z,29.60
2023-01-17T22:11:17.360Z,29.70
2023-01-17T22:13:45.195Z,28.38
2023-01-17T22:16:15.380Z,28.75
2023-01-17T22:18:43.673Z,27.10
2023-01-17T22:21:19.338Z,28.92
2023-01-17T22:23:58.206Z,28.02
2023-01-17T22:26:30.686Z,27.05
2023-01-17T22:29:00.325Z,28.95
2023-01-17T22:31:28.327Z,27.02
2023-01-17T22:34:03.887Z,28.10
2023-01-17T22:36:34.465Z,27.40
2023-01-17T22:39:01.308Z,28.10
2023-01-17T22:41:29.913Z,27.45
2023-01-17T22:43:58.731Z,26.50
2023-01-17T22:46:30.654Z,26.92
2023-01-17T22:48:59.027Z,27.38
2023-01-17T22:51:27.871Z,26.52
2023-01-17T22:53:56.971Z,26.88
2023-01-17T22:56:26.406Z,27.40
2023-01-17T22:58:53.184Z,29.92
2023-01-17T23:01:25.783Z,32.53
2023-01-17T23:03:57.127Z,35.55
2023-01-17T23:06:28.249Z,33.47
2023-01-17T23:08:59.236Z,33.72
2023-01-17T23:11:38.832Z,34.45
2023-01-17T23:14:12.534Z,32.15
2023-01-17T23:17:00.296Z,31.75
2023-01-17T23:19:29.552Z,29.67
2023-01-17T23:22:16.090Z,28.63
2023-01-17T23:24:47.300Z,29.88
2023-01-17T23:27:36.969Z,27.10
2023-01-17T23:30:07.152Z,25.08
2023-01-17T23:32:33.851Z,25.35
2023-01-17T23:35:00.479Z,25.17
2023-01-17T23:37:47.529Z,23.73
2023-01-17T23:40:14.445Z,25.35
2023-01-17T23:43:00.026Z,24.52
2023-01-17T23:45:26.771Z,24.02
2023-01-17T23:47:53.594Z,25.35
2023-01-17T23:50:20.424Z,25.13
2023-01-17T23:52:47.061Z,25.00
2023-01-17T23:55:13.748Z,24.75
2023-01-17T23:57:40.528Z,24.02
